createdAt,value
2023-01-17T00:05:14.999Z,5.90
2023-01-17T00:10:21.887Z,5.90
2023-01-17T00:15:24.563Z,5.80
2023-01-17T00:20:48.125Z,5.80
2023-01-17T00:26:04.951Z,5.90
2023-01-17T00:31:09.068Z,5.80
2023-01-17T00:36:12.479Z,5.70
2023-01-17T00:41:15.391Z,5.60
2023-01-17T00:46:36.178Z,5.70
2023-01-17T00:51:57.255Z,5.70
2023-01-17T00:57:17.706Z,5.80
2023-01-17T01:02:38.433Z,5.90
2023-01-17T01:07:58.541Z,6.00
2023-01-17T01:13:18.798Z,6.00
2023-01-17T01:18:41.368Z,6.00
2023-01-17T01:24:01.705Z,6.00
2023-01-17T01:29:21.776Z,6.00
2023-01-17T01:34:23.644Z,6.00
2023-01-17T01:39:25.382Z,6.10
2023-01-17T01:44:48.308Z,6.10
2023-01-17T01:49:53.158Z,6.20
2023-01-17T01:55:04.326Z,6.20
2023-01-17T02:00:21.857Z,6.20
2023-01-17T02:05:25.227Z,6.20
2023-01-17T02:10:26.952Z,6.20
2023-01-17T02:15:42.011Z,6.10
2023-01-17T02:21:01.812Z,6.10
2023-01-17T02:26:07.796Z,6.00
2023-01-17T02:31:32.273Z,6.00
2023-01-17T02:36:45.155Z,5.90
2023-01-17T02:41:53.655Z,5.90
2023-01-17T02:46:57.870Z,5.90
2023-01-17T02:52:14.287Z,5.90
2023-01-17T02:57:37.118Z,5.80
2023-01-17T03:02:48.871Z,5.80
2023-01-17T03:07:52.044Z,5.70
2023-01-17T03:12:59.606Z,5.70
2023-01-17T03:18:05.417Z,5.80
2023-01-17T03:23:09.588Z,5.80
2023-01-17T03:28:11.411Z,5.80
2023-01-17T03:33:13.086Z,5.90
2023-01-17T03:38:15.235Z,5.80
2023-01-17T03:43:17.006Z,5.80
2023-01-17T03:48:18.803Z,5.70
2023-01-17T03:53:20.832Z,5.70
2023-01-17T03:58:23.793Z,5.70
2023-01-17T04:03:25.909Z,5.70
2023-01-17T04:08:30.000Z,5.60
2023-01-17T04:13:31.691Z,5.50
2023-01-17T04:18:33.449Z,5.40
2023-01-17T04:23:35.744Z,5.40
2023-01-17T04:28:38.977Z,5.30
2023-01-17T04:33:40.744Z,5.30
2023-01-17T04:38:42.637Z,5.20
2023-01-17T04:43:45.456Z,5.10
2023-01-17T04:48:47.192Z,5.10
2023-01-17T04:53:49.253Z,5.10
2023-01-17T04:58:50.952Z,5.10
2023-01-17T05:03:52.670Z,5.10
2023-01-17T05:08:54.781Z,5.10
2023-01-17T05:13:56.506Z,5.10
2023-01-17T05:18:58.241Z,5.10
2023-01-17T05:24:00.477Z,5.10
2023-01-17T05:29:02.233Z,5.10
2023-01-17T05:34:07.175Z,5.10
2023-01-17T05:39:10.792Z,5.00
2023-01-17T05:44:12.847Z,5.00
2023-01-17T05:49:14.572Z,5.00
2023-01-17T05:54:16.663Z,5.00
2023-01-17T05:59:25.618Z,5.00
2023-01-17T06:04:38.002Z,5.00
2023-01-17T06:09:39.750Z,5.10
2023-01-17T06:14:41.771Z,5.20
2023-01-17T06:19:43.638Z,5.20
2023-01-17T06:24:46.785Z,5.10
2023-01-17T06:29:48.600Z,5.10
2023-01-17T06:34:52.049Z,5.10
2023-01-17T06:39:56.561Z,5.00
2023-01-17T06:44:58.366Z,5.20
2023-01-17T06:50:01.289Z,5.30
2023-01-17T06:55:03.101Z,5.40
2023-01-17T07:00:05.327Z,5.40
2023-01-17T07:05:11.363Z,5.40
2023-01-17T07:10:14.662Z,5.30
2023-01-17T07:15:16.416Z,5.20
2023-01-17T07:20:18.692Z,5.20
2023-01-17T07:25:20.406Z,5.10
2023-01-17T07:30:22.290Z,5.10
2023-01-17T07:35:27.887Z,5.20
2023-01-17T07:40:29.928Z,5.20
2023-01-17T07:45:31.628Z,5.20
2023-01-17T07:50:33.419Z,5.10
2023-01-17T07:55:36.879Z,5.10
2023-01-17T08:00:38.623Z,4.90
2023-01-17T08:05:43.276Z,4.80
2023-01-17T08:10:45.357Z,4.90
2023-01-17T08:15:49.018Z,4.90
2023-01-17T08:20:50.726Z,4.90
2023-01-17T08:25:52.804Z,4.80
2023-01-17T08:30:54.616Z,4.80
2023-01-17T08:35:56.312Z,4.70
2023-01-17T08:41:01.055Z,4.70
2023-01-17T08:46:03.000Z,4.70
2023-01-17T08:51:04.999Z,4.80
2023-01-17T08:56:07.234Z,4.70
2023-01-17T09:01:09.101Z,4.70
2023-01-17T09:06:13.355Z,4.70
2023-01-17T09:11:16.876Z,4.70
2023-01-17T09:16:18.873Z,4.70
2023-01-17T09:21:20.704Z,4.90
2023-01-17T09:26:28.443Z,5.00
2023-01-17T09:31:30.313Z,5.10
2023-01-17T09:36:34.751Z,5.40
2023-01-17T09:41:48.483Z,5.60
2023-01-17T09:46:53.857Z,5.90
2023-01-17T09:51:57.188Z,6.00
2023-01-17T09:57:20.138Z,5.90
2023-01-17T10:02:43.501Z,5.90
2023-01-17T10:07:57.453Z,6.10
2023-01-17T10:13:24.246Z,6.20
2023-01-17T10:18:40.959Z,6.30
2023-01-17T10:24:03.799Z,6.30
2023-01-17T10:29:15.047Z,6.10
2023-01-17T10:34:29.323Z,5.90
2023-01-17T10:39:31.249Z,5.80
2023-01-17T10:44:55.931Z,5.60
2023-01-17T10:49:59.356Z,5.50
2023-01-17T10:55:39.056Z,5.50
2023-01-17T11:00:43.849Z,5.50
2023-01-17T11:06:14.842Z,5.50
2023-01-17T11:11:17.388Z,5.50
2023-01-17T11:16:26.708Z,5.50
2023-01-17T11:21:29.453Z,5.40
2023-01-17T11:26:34.774Z,5.40
2023-01-17T11:31:39.476Z,5.50
2023-01-17T11:36:41.875Z,5.80
2023-01-17T11:41:45.651Z,6.20
2023-01-17T11:46:47.732Z,6.30
2023-01-17T11:51:49.582Z,6.30
2023-01-17T11:57:00.710Z,6.00
2023-01-17T12:02:24.402Z,5.90
2023-01-17T12:07:40.707Z,6.00
2023-01-17T12:13:15.077Z,6.20
2023-01-17T12:18:40.650Z,6.30
2023-01-17T12:23:57.624Z,6.00
2023-01-17T12:29:21.026Z,5.70
2023-01-17T12:34:41.268Z,5.70
2023-01-17T12:39:52.767Z,5.80
2023-01-17T12:45:20.278Z,6.00
2023-01-17T12:50:44.598Z,6.20
2023-01-17T12:56:40.182Z,6.10
2023-01-17T13:01:57.229Z,5.90
2023-01-17T13:06:59.067Z,5.80
2023-01-17T13:12:07.713Z,5.70
2023-01-17T13:17:31.529Z,5.80
2023-01-17T13:22:33.894Z,6.00
2023-01-17T13:28:14.205Z,6.10
2023-01-17T13:33:37.131Z,6.10
2023-01-17T13:38:57.567Z,6.20
2023-01-17T13:44:19.513Z,6.20
2023-01-17T13:49:34.306Z,6.30
2023-01-17T13:54:45.100Z,6.50
2023-01-17T13:59:46.918Z,6.50
2023-01-17T14:05:09.680Z,6.40
2023-01-17T14:10:34.167Z,6.40
2023-01-17T14:15:49.975Z,6.40
2023-01-17T14:21:05.767Z,6.30
2023-01-17T14:26:45.207Z,6.30
2023-01-17T14:31:47.167Z,6.30
2023-01-17T14:36:48.879Z,6.20
2023-01-17T14:41:51.800Z,6.20
2023-01-17T14:46:53.539Z,6.30
2023-01-17T14:52:02.873Z,6.20
2023-01-17T14:57:29.145Z,6.20
2023-01-17T15:02:32.091Z,6.20
2023-01-17T15:07:36.383Z,6.20
2023-01-17T15:12:38.753Z,6.20
2023-01-17T15:17:40.448Z,6.10
2023-01-17T15:22:42.306Z,6.10
2023-01-17T15:27:44.230Z,6.00
2023-01-17T15:32:51.273Z,6.00
2023-01-17T15:37:54.849Z,5.90
2023-01-17T15:42:59.459Z,5.80
2023-01-17T15:48:33.437Z,5.80
2023-01-17T15:53:39.543Z,5.80
2023-01-17T15:58:41.309Z,5.80
2023-01-17T16:03:53.911Z,5.70
2023-01-17T16:08:55.716Z,5.70
2023-01-17T16:13:57.411Z,5.70
2023-01-17T16:19:02.117Z,5.60
2023-01-17T16:24:05.734Z,5.50
2023-01-17T16:29:08.176Z,5.50
2023-01-17T16:34:12.462Z,5.50
2023-01-17T16:39:15.340Z,5.50
2023-01-17T16:44:18.536Z,5.40
2023-01-17T16:49:20.297Z,5.40
2023-01-17T16:54:22.084Z,5.20
2023-01-17T16:59:23.836Z,5.20
2023-01-17T17:04:25.566Z,5.20
2023-01-17T17:09:27.299Z,5.10
2023-01-17T17:14:29.269Z,4.90
2023-01-17T17:19:31.037Z,4.60
2023-01-17T17:24:33.214Z,4.30
2023-01-17T17:29:35.162Z,4.10
2023-01-17T17:34:38.227Z,3.90
2023-01-17T17:39:40.035Z,3.80
2023-01-17T17:44:41.781Z,3.70
2023-01-17T17:49:43.711Z,3.60
2023-01-17T17:54:45.473Z,3.50
2023-01-17T17:59:47.135Z,3.40
2023-01-17T18:04:48.866Z,3.20
2023-01-17T18:09:50.588Z,3.20
2023-01-17T18:14:52.340Z,3.00
2023-01-17T18:19:54.119Z,3.00
2023-01-17T18:24:55.834Z,2.90
2023-01-17T18:29:58.893Z,2.80
2023-01-17T18:35:00.591Z,2.70
2023-01-17T18:40:02.367Z,2.70
2023-01-17T18:45:04.539Z,2.60
2023-01-17T18:50:06.455Z,2.50
2023-01-17T18:55:08.775Z,2.50
2023-01-17T19:00:11.091Z,2.40
2023-01-17T19:05:14.747Z,2.40
2023-01-17T19:10:16.531Z,2.30
2023-01-17T19:15:18.196Z,2.20
2023-01-17T19:20:19.906Z,2.10
2023-01-17T19:25:22.893Z,2.00
2023-01-17T19:30:24.703Z,2.00
2023-01-17T19:35:26.381Z,2.00
2023-01-17T19:40:28.078Z,1.90
2023-01-17T19:45:30.132Z,1.90
2023-01-17T19:50:31.899Z,1.90
2023-01-17T19:55:38.697Z,1.90
2023-01-17T20:00:46.495Z,1.80
2023-01-17T20:05:56.563Z,1.80
2023-01-17T20:11:10.007Z,1.90
2023-01-17T20:21:30.523Z,1.80
2023-01-17T20:26:35.532Z,1.80
2023-01-17T20:31:38.660Z,1.70
2023-01-17T20:36:42.061Z,1.70
2023-01-17T20:41:46.350Z,1.80
2023-01-17T20:46:48.378Z,1.80
2023-01-17T20:51:50.338Z,1.80
2023-01-17T20:56:52.217Z,1.80
2023-01-17T21:01:53.993Z,1.70
2023-01-17T21:06:56.504Z,1.60
2023-01-17T21:12:01.429Z,1.60
2023-01-17T21:17:03.550Z,1.50
2023-01-17T21:22:05.747Z,1.40
2023-01-17T21:27:07.602Z,1.40
2023-01-17T21:32:09.392Z,1.40
2023-01-17T21:37:11.105Z,1.40
2023-01-17T21:42:12.910Z,1.30
2023-01-17T21:47:14.653Z,1.30
2023-01-17T21:52:19.161Z,1.40
2023-01-17T21:57:40.842Z,1.50
2023-01-17T22:02:44.738Z,1.50
2023-01-17T22:08:05.554Z,1.50
2023-01-17T22:13:07.358Z,1.50
2023-01-17T22:18:09.663Z,1.60
2023-01-17T22:23:12.013Z,1.50
2023-01-17T22:28:14.074Z,1.60
2023-01-17T22:33:16.232Z,1.60
2023-01-17T22:38:18.274Z,1.40
2023-01-17T22:43:20.391Z,1.40
2023-01-17T22:48:22.390Z,1.30
2023-01-17T22:53:24.756Z,1.30
2023-01-17T22:58:28.831Z,1.20
2023-01-17T23:03:34.462Z,1.20
2023-01-17T23:08:37.384Z,1.20
2023-01-17T23:13:39.492Z,1.20
2023-01-17T23:19:00.212Z,1.20
2023-01-17T23:24:02.760Z,1.20
2023-01-17T23:29:04.504Z,1.10
2023-01-17T23:34:06.248Z,1.10
2023-01-17T23:39:08.094Z,1.00
2023-01-17T23:44:09.980Z,0.90
2023-01-17T23:49:11.778Z,0.90
2023-01-17T23:54:13.421Z,0.90
2023-01-17T23:59:15.242Z,0.80
